sensor_id;sensor_type;location;lat;lon;timestamp;P1;durP1;ratioP1;P2;durP2;ratioP2
27746;SDS011;15138;51.012;4.692;2023-02-12T00:01:16;55.38;;;31.00;;
27746;SDS011;15138;51.012;4.692;2023-02-12T00:03:46;42.63;;;25.15;;
27746;SDS011;15138;51.012;4.692;2023-02-12T00:06:15;51.33;;;27.67;;
27746;SDS011;15138;51.012;4.692;2023-02-12T00:08:43;59.95;;;32.28;;
27746;SDS011;15138;51.012;4.692;2023-02-12T00:11:17;62.03;;;34.75;;
27746;SDS011;15138;51.012;4.692;2023-02-12T00:13:46;52.33;;;30.55;;
27746;SDS011;15138;51.012;4.692;2023-02-12T00:16:17;59.33;;;33.45;;
27746;SDS011;15138;51.012;4.692;2023-02-12T00:18:50;50.03;;;28.75;;
27746;SDS011;15138;51.012;4.692;2023-02-12T00:21:18;46.25;;;26.52;;
27746;SDS011;15138;51.012;4.692;2023-02-12T00:23:47;48.50;;;27.23;;
27746;SDS011;15138;51.012;4.692;2023-02-12T00:26:17;57.28;;;29.48;;
27746;SDS011;15138;51.012;4.692;2023-02-12T00:28:47;42.92;;;25.45;;
27746;SDS011;15138;51.012;4.692;2023-02-12T00:31:18;29.05;;;15.85;;
27746;SDS011;15138;51.012;4.692;2023-02-12T00:33:47;49.72;;;27.73;;
27746;SDS011;15138;51.012;4.692;2023-02-12T00:36:16;60.00;;;33.88;;
27746;SDS011;15138;51.012;4.692;2023-02-12T00:38:46;49.97;;;28.30;;
27746;SDS011;15138;51.012;4.692;2023-02-12T00:41:15;26.88;;;15.80;;
27746;SDS011;15138;51.012;4.692;2023-02-12T00:43:43;28.90;;;17.63;;
27746;SDS011;15138;51.012;4.692;2023-02-12T00:46:12;30.17;;;17.23;;
27746;SDS011;15138;51.012;4.692;2023-02-12T00:48:42;48.20;;;26.52;;
27746;SDS011;15138;51.012;4.692;2023-02-12T00:51:11;59.58;;;32.00;;
27746;SDS011;15138;51.012;4.692;2023-02-12T00:53:39;54.63;;;29.00;;
27746;SDS011;15138;51.012;4.692;2023-02-12T00:56:07;27.25;;;17.35;;
27746;SDS011;15138;51.012;4.692;2023-02-12T00:58:36;55.03;;;29.77;;
27746;SDS011;15138;51.012;4.692;2023-02-12T01:01:04;57.78;;;32.00;;
27746;SDS011;15138;51.012;4.692;2023-02-12T01:03:33;38.60;;;22.25;;
27746;SDS011;15138;51.012;4.692;2023-02-12T01:06:03;48.60;;;25.58;;
27746;SDS011;15138;51.012;4.692;2023-02-12T01:08:32;35.95;;;20.30;;
27746;SDS011;15138;51.012;4.692;2023-02-12T01:11:01;37.25;;;21.38;;
27746;SDS011;15138;51.012;4.692;2023-02-12T01:13:31;30.23;;;18.58;;
27746;SDS011;15138;51.012;4.692;2023-02-12T01:16:01;32.33;;;19.25;;
27746;SDS011;15138;51.012;4.692;2023-02-12T01:18:32;27.90;;;17.50;;
27746;SDS011;15138;51.012;4.692;2023-02-12T01:21:00;50.42;;;27.75;;
27746;SDS011;15138;51.012;4.692;2023-02-12T01:23:30;58.78;;;31.77;;
27746;SDS011;15138;51.012;4.692;2023-02-12T01:25:58;40.47;;;24.05;;
27746;SDS011;15138;51.012;4.692;2023-02-12T01:28:26;50.58;;;30.02;;
27746;SDS011;15138;51.012;4.692;2023-02-12T01:30:54;60.40;;;31.77;;
27746;SDS011;15138;51.012;4.692;2023-02-12T01:33:23;51.20;;;29.63;;
27746;SDS011;15138;51.012;4.692;2023-02-12T01:35:51;31.63;;;19.27;;
27746;SDS011;15138;51.012;4.692;2023-02-12T01:38:20;37.83;;;21.02;;
27746;SDS011;15138;51.012;4.692;2023-02-12T01:40:50;31.08;;;18.42;;
27746;SDS011;15138;51.012;4.692;2023-02-12T01:43:18;26.05;;;16.42;;
27746;SDS011;15138;51.012;4.692;2023-02-12T01:45:48;33.47;;;19.67;;
27746;SDS011;15138;51.012;4.692;2023-02-12T01:48:20;54.90;;;29.80;;
27746;SDS011;15138;51.012;4.692;2023-02-12T01:50:52;33.05;;;20.13;;
27746;SDS011;15138;51.012;4.692;2023-02-12T01:53:22;41.72;;;24.88;;
27746;SDS011;15138;51.012;4.692;2023-02-12T01:55:57;59.00;;;31.60;;
27746;SDS011;15138;51.012;4.692;2023-02-12T01:58:29;43.22;;;23.10;;
27746;SDS011;15138;51.012;4.692;2023-02-12T02:01:02;44.00;;;25.67;;
27746;SDS011;15138;51.012;4.692;2023-02-12T02:03:33;57.45;;;30.90;;
27746;SDS011;15138;51.012;4.692;2023-02-12T02:06:05;32.45;;;19.90;;
27746;SDS011;15138;51.012;4.692;2023-02-12T02:08:37;30.40;;;17.95;;
27746;SDS011;15138;51.012;4.692;2023-02-12T02:11:08;36.97;;;20.33;;
27746;SDS011;15138;51.012;4.692;2023-02-12T02:13:50;47.92;;;27.67;;
27746;SDS011;15138;51.012;4.692;2023-02-12T02:16:35;36.50;;;20.97;;
27746;SDS011;15138;51.012;4.692;2023-02-12T02:19:07;41.53;;;24.17;;
27746;SDS011;15138;51.012;4.692;2023-02-12T02:21:50;36.38;;;20.58;;
27746;SDS011;15138;51.012;4.692;2023-02-12T02:25:02;25.77;;;16.40;;
27746;SDS011;15138;51.012;4.692;2023-02-12T02:27:50;37.20;;;21.38;;
27746;SDS011;15138;51.012;4.692;2023-02-12T02:30:31;37.42;;;21.25;;
27746;SDS011;15138;51.012;4.692;2023-02-12T02:36:09;30.88;;;17.90;;
27746;SDS011;15138;51.012;4.692;2023-02-12T02:38:50;24.50;;;14.40;;
27746;SDS011;15138;51.012;4.692;2023-02-12T02:41:25;24.48;;;14.18;;
27746;SDS011;15138;51.012;4.692;2023-02-12T02:43:56;20.83;;;12.88;;
27746;SDS011;15138;51.012;4.692;2023-02-12T02:46:30;28.08;;;15.85;;
27746;SDS011;15138;51.012;4.692;2023-02-12T02:49:02;41.20;;;20.85;;
27746;SDS011;15138;51.012;4.692;2023-02-12T02:51:33;40.40;;;22.67;;
27746;SDS011;15138;51.012;4.692;2023-02-12T02:54:08;49.15;;;27.75;;
27746;SDS011;15138;51.012;4.692;2023-02-12T02:56:40;51.88;;;29.38;;
27746;SDS011;15138;51.012;4.692;2023-02-12T02:59:14;27.30;;;16.92;;
27746;SDS011;15138;51.012;4.692;2023-02-12T03:01:49;45.88;;;26.02;;
27746;SDS011;15138;51.012;4.692;2023-02-12T03:04:21;27.10;;;16.05;;
27746;SDS011;15138;51.012;4.692;2023-02-12T03:06:56;50.67;;;27.83;;
27746;SDS011;15138;51.012;4.692;2023-02-12T03:09:30;53.00;;;28.67;;
27746;SDS011;15138;51.012;4.692;2023-02-12T03:12:03;30.58;;;18.73;;
27746;SDS011;15138;51.012;4.692;2023-02-12T03:14:37;34.85;;;20.48;;
27746;SDS011;15138;51.012;4.692;2023-02-12T03:17:11;27.17;;;15.82;;
27746;SDS011;15138;51.012;4.692;2023-02-12T03:22:15;33.13;;;19.38;;
27746;SDS011;15138;51.012;4.692;2023-02-12T03:24:49;26.23;;;15.48;;
27746;SDS011;15138;51.012;4.692;2023-02-12T03:27:25;25.80;;;15.90;;
27746;SDS011;15138;51.012;4.692;2023-02-12T03:29:58;17.63;;;10.68;;
27746;SDS011;15138;51.012;4.692;2023-02-12T03:32:29;17.33;;;10.10;;
27746;SDS011;15138;51.012;4.692;2023-02-12T03:35:07;31.25;;;17.58;;
27746;SDS011;15138;51.012;4.692;2023-02-12T03:37:40;30.10;;;16.98;;
27746;SDS011;15138;51.012;4.692;2023-02-12T03:40:15;22.52;;;14.20;;
27746;SDS011;15138;51.012;4.692;2023-02-12T03:42:47;17.77;;;11.80;;
27746;SDS011;15138;51.012;4.692;2023-02-12T03:45:25;41.53;;;24.50;;
27746;SDS011;15138;51.012;4.692;2023-02-12T03:48:07;46.10;;;26.23;;
27746;SDS011;15138;51.012;4.692;2023-02-12T03:50:41;29.13;;;17.80;;
27746;SDS011;15138;51.012;4.692;2023-02-12T03:53:15;22.55;;;14.20;;
27746;SDS011;15138;51.012;4.692;2023-02-12T03:55:44;40.05;;;22.38;;
27746;SDS011;15138;51.012;4.692;2023-02-12T03:58:17;27.92;;;16.65;;
27746;SDS011;15138;51.012;4.692;2023-02-12T04:00:50;25.17;;;15.88;;
27746;SDS011;15138;51.012;4.692;2023-02-12T04:03:20;35.25;;;20.42;;
27746;SDS011;15138;51.012;4.692;2023-02-12T04:05:48;39.72;;;22.05;;
27746;SDS011;15138;51.012;4.692;2023-02-12T04:08:17;23.40;;;14.13;;
27746;SDS011;15138;51.012;4.692;2023-02-12T04:10:51;19.48;;;12.95;;
27746;SDS011;15138;51.012;4.692;2023-02-12T04:13:32;37.70;;;22.25;;
27746;SDS011;15138;51.012;4.692;2023-02-12T04:16:06;26.23;;;15.93;;
27746;SDS011;15138;51.012;4.692;2023-02-12T04:18:42;40.53;;;24.27;;
27746;SDS011;15138;51.012;4.692;2023-02-12T04:21:13;31.13;;;19.00;;
27746;SDS011;15138;51.012;4.692;2023-02-12T04:23:49;31.58;;;18.92;;
27746;SDS011;15138;51.012;4.692;2023-02-12T04:26:23;31.15;;;17.75;;
27746;SDS011;15138;51.012;4.692;2023-02-12T04:28:56;20.65;;;13.23;;
27746;SDS011;15138;51.012;4.692;2023-02-12T04:31:28;19.55;;;12.40;;
27746;SDS011;15138;51.012;4.692;2023-02-12T04:34:01;28.73;;;16.60;;
27746;SDS011;15138;51.012;4.692;2023-02-12T04:36:33;33.08;;;17.33;;
27746;SDS011;15138;51.012;4.692;2023-02-12T04:39:03;40.17;;;22.60;;
27746;SDS011;15138;51.012;4.692;2023-02-12T04:41:34;22.58;;;14.18;;
27746;SDS011;15138;51.012;4.692;2023-02-12T04:44:14;18.95;;;11.90;;
27746;SDS011;15138;51.012;4.692;2023-02-12T04:46:43;19.38;;;12.10;;
27746;SDS011;15138;51.012;4.692;2023-02-12T04:49:14;24.02;;;13.88;;
27746;SDS011;15138;51.012;4.692;2023-02-12T04:51:43;27.80;;;14.88;;
27746;SDS011;15138;51.012;4.692;2023-02-12T04:54:12;38.63;;;22.40;;
27746;SDS011;15138;51.012;4.692;2023-02-12T04:56:40;27.27;;;16.95;;
27746;SDS011;15138;51.012;4.692;2023-02-12T04:59:09;35.25;;;20.35;;
27746;SDS011;15138;51.012;4.692;2023-02-12T05:01:38;39.15;;;21.52;;
27746;SDS011;15138;51.012;4.692;2023-02-12T05:04:09;26.75;;;16.50;;
27746;SDS011;15138;51.012;4.692;2023-02-12T05:06:39;19.98;;;12.52;;
27746;SDS011;15138;51.012;4.692;2023-02-12T05:09:09;28.52;;;17.13;;
27746;SDS011;15138;51.012;4.692;2023-02-12T05:11:38;28.25;;;17.00;;
27746;SDS011;15138;51.012;4.692;2023-02-12T05:14:06;37.53;;;22.58;;
27746;SDS011;15138;51.012;4.692;2023-02-12T05:16:35;36.47;;;21.38;;
27746;SDS011;15138;51.012;4.692;2023-02-12T05:19:03;30.65;;;19.80;;
27746;SDS011;15138;51.012;4.692;2023-02-12T05:21:34;31.85;;;18.67;;
27746;SDS011;15138;51.012;4.692;2023-02-12T05:24:06;18.92;;;12.32;;
27746;SDS011;15138;51.012;4.692;2023-02-12T05:26:35;20.40;;;12.88;;
27746;SDS011;15138;51.012;4.692;2023-02-12T05:29:04;21.38;;;13.10;;
27746;SDS011;15138;51.012;4.692;2023-02-12T05:31:33;19.75;;;11.43;;
27746;SDS011;15138;51.012;4.692;2023-02-12T05:34:01;35.38;;;20.55;;
27746;SDS011;15138;51.012;4.692;2023-02-12T05:36:30;26.17;;;16.52;;
27746;SDS011;15138;51.012;4.692;2023-02-12T05:38:58;24.95;;;13.48;;
27746;SDS011;15138;51.012;4.692;2023-02-12T05:41:28;20.65;;;12.88;;
27746;SDS011;15138;51.012;4.692;2023-02-12T05:44:00;16.65;;;10.93;;
27746;SDS011;15138;51.012;4.692;2023-02-12T05:46:29;34.22;;;20.08;;
27746;SDS011;15138;51.012;4.692;2023-02-12T05:48:58;35.78;;;21.13;;
27746;SDS011;15138;51.012;4.692;2023-02-12T05:51:26;33.80;;;20.23;;
27746;SDS011;15138;51.012;4.692;2023-02-12T05:53:58;22.80;;;14.77;;
27746;SDS011;15138;51.012;4.692;2023-02-12T05:56:30;29.65;;;16.65;;
27746;SDS011;15138;51.012;4.692;2023-02-12T05:59:01;23.95;;;14.95;;
27746;SDS011;15138;51.012;4.692;2023-02-12T06:01:31;30.27;;;18.65;;
27746;SDS011;15138;51.012;4.692;2023-02-12T06:04:01;39.65;;;21.60;;
27746;SDS011;15138;51.012;4.692;2023-02-12T06:06:31;17.77;;;11.35;;
27746;SDS011;15138;51.012;4.692;2023-02-12T06:09:00;22.83;;;13.85;;
27746;SDS011;15138;51.012;4.692;2023-02-12T06:11:30;31.35;;;18.13;;
27746;SDS011;15138;51.012;4.692;2023-02-12T06:14:00;42.28;;;22.88;;
27746;SDS011;15138;51.012;4.692;2023-02-12T06:16:29;31.50;;;17.95;;
27746;SDS011;15138;51.012;4.692;2023-02-12T06:18:59;28.10;;;16.33;;
27746;SDS011;15138;51.012;4.692;2023-02-12T06:21:28;27.02;;;15.57;;
27746;SDS011;15138;51.012;4.692;2023-02-12T06:23:57;33.08;;;18.25;;
27746;SDS011;15138;51.012;4.692;2023-02-12T06:26:26;23.00;;;14.18;;
27746;SDS011;15138;51.012;4.692;2023-02-12T06:28:56;37.15;;;20.52;;
27746;SDS011;15138;51.012;4.692;2023-02-12T06:31:26;33.00;;;18.33;;
27746;SDS011;15138;51.012;4.692;2023-02-12T06:33:56;41.67;;;21.80;;
27746;SDS011;15138;51.012;4.692;2023-02-12T06:36:27;21.63;;;13.73;;
27746;SDS011;15138;51.012;4.692;2023-02-12T06:38:55;31.63;;;19.23;;
27746;SDS011;15138;51.012;4.692;2023-02-12T06:41:24;23.15;;;13.85;;
27746;SDS011;15138;51.012;4.692;2023-02-12T06:43:52;20.17;;;12.65;;
27746;SDS011;15138;51.012;4.692;2023-02-12T06:46:22;22.15;;;12.30;;
27746;SDS011;15138;51.012;4.692;2023-02-12T06:48:51;39.30;;;21.40;;
27746;SDS011;15138;51.012;4.692;2023-02-12T06:51:21;30.60;;;17.58;;
27746;SDS011;15138;51.012;4.692;2023-02-12T06:53:50;31.27;;;18.73;;
27746;SDS011;15138;51.012;4.692;2023-02-12T06:56:19;33.25;;;19.77;;
27746;SDS011;15138;51.012;4.692;2023-02-12T06:58:51;29.25;;;16.40;;
27746;SDS011;15138;51.012;4.692;2023-02-12T07:01:24;21.15;;;12.98;;
27746;SDS011;15138;51.012;4.692;2023-02-12T07:03:54;22.30;;;13.00;;
27746;SDS011;15138;51.012;4.692;2023-02-12T07:06:24;19.08;;;10.30;;
27746;SDS011;15138;51.012;4.692;2023-02-12T07:08:54;22.40;;;14.05;;
27746;SDS011;15138;51.012;4.692;2023-02-12T07:11:22;26.35;;;16.20;;
27746;SDS011;15138;51.012;4.692;2023-02-12T07:13:51;13.45;;;8.93;;
27746;SDS011;15138;51.012;4.692;2023-02-12T07:16:20;15.88;;;10.40;;
27746;SDS011;15138;51.012;4.692;2023-02-12T07:18:50;32.10;;;18.80;;
27746;SDS011;15138;51.012;4.692;2023-02-12T07:21:19;29.00;;;18.05;;
27746;SDS011;15138;51.012;4.692;2023-02-12T07:23:48;28.92;;;16.92;;
27746;SDS011;15138;51.012;4.692;2023-02-12T07:26:18;17.63;;;10.85;;
27746;SDS011;15138;51.012;4.692;2023-02-12T07:28:48;17.00;;;9.82;;
27746;SDS011;15138;51.012;4.692;2023-02-12T07:31:18;16.02;;;10.55;;
27746;SDS011;15138;51.012;4.692;2023-02-12T07:33:48;22.38;;;14.13;;
27746;SDS011;15138;51.012;4.692;2023-02-12T07:36:21;17.55;;;11.77;;
27746;SDS011;15138;51.012;4.692;2023-02-12T07:38:50;16.63;;;8.85;;
27746;SDS011;15138;51.012;4.692;2023-02-12T07:41:21;22.20;;;13.50;;
27746;SDS011;15138;51.012;4.692;2023-02-12T07:43:52;18.02;;;11.15;;
27746;SDS011;15138;51.012;4.692;2023-02-12T07:46:22;32.67;;;18.55;;
27746;SDS011;15138;51.012;4.692;2023-02-12T07:48:55;28.05;;;15.18;;
27746;SDS011;15138;51.012;4.692;2023-02-12T07:51:26;31.02;;;18.25;;
27746;SDS011;15138;51.012;4.692;2023-02-12T07:53:55;34.72;;;21.17;;
27746;SDS011;15138;51.012;4.692;2023-02-12T07:56:24;37.33;;;21.55;;
27746;SDS011;15138;51.012;4.692;2023-02-12T07:58:57;23.83;;;12.90;;
27746;SDS011;15138;51.012;4.692;2023-02-12T08:01:28;20.85;;;13.35;;
27746;SDS011;15138;51.012;4.692;2023-02-12T08:03:58;34.03;;;20.80;;
27746;SDS011;15138;51.012;4.692;2023-02-12T08:06:29;29.45;;;18.48;;
27746;SDS011;15138;51.012;4.692;2023-02-12T08:08:59;29.83;;;17.00;;
27746;SDS011;15138;51.012;4.692;2023-02-12T08:11:30;22.15;;;13.40;;
27746;SDS011;15138;51.012;4.692;2023-02-12T08:13:59;17.05;;;10.77;;
27746;SDS011;15138;51.012;4.692;2023-02-12T08:16:29;36.63;;;21.67;;
27746;SDS011;15138;51.012;4.692;2023-02-12T08:18:58;35.95;;;21.90;;
27746;SDS011;15138;51.012;4.692;2023-02-12T08:21:44;41.08;;;22.50;;
27746;SDS011;15138;51.012;4.692;2023-02-12T08:24:15;36.42;;;20.83;;
27746;SDS011;15138;51.012;4.692;2023-02-12T08:26:43;38.70;;;21.33;;
27746;SDS011;15138;51.012;4.692;2023-02-12T08:29:12;33.25;;;19.30;;
27746;SDS011;15138;51.012;4.692;2023-02-12T08:31:43;32.53;;;18.73;;
27746;SDS011;15138;51.012;4.692;2023-02-12T08:34:15;37.72;;;19.67;;
27746;SDS011;15138;51.012;4.692;2023-02-12T08:36:46;35.33;;;20.08;;
27746;SDS011;15138;51.012;4.692;2023-02-12T08:39:16;38.17;;;22.48;;
27746;SDS011;15138;51.012;4.692;2023-02-12T08:41:45;41.92;;;23.73;;
27746;SDS011;15138;51.012;4.692;2023-02-12T08:44:14;34.40;;;19.30;;
27746;SDS011;15138;51.012;4.692;2023-02-12T08:46:43;27.08;;;16.70;;
27746;SDS011;15138;51.012;4.692;2023-02-12T08:49:14;40.28;;;21.52;;
27746;SDS011;15138;51.012;4.692;2023-02-12T08:51:44;42.53;;;22.17;;
27746;SDS011;15138;51.012;4.692;2023-02-12T08:54:16;43.33;;;23.88;;
27746;SDS011;15138;51.012;4.692;2023-02-12T08:56:45;39.55;;;22.63;;
27746;SDS011;15138;51.012;4.692;2023-02-12T08:59:14;40.65;;;20.45;;
27746;SDS011;15138;51.012;4.692;2023-02-12T09:01:43;42.45;;;23.38;;
27746;SDS011;15138;51.012;4.692;2023-02-12T09:04:13;44.92;;;24.33;;
27746;SDS011;15138;51.012;4.692;2023-02-12T09:06:44;38.10;;;21.00;;
27746;SDS011;15138;51.012;4.692;2023-02-12T09:09:13;41.95;;;23.55;;
27746;SDS011;15138;51.012;4.692;2023-02-12T09:11:44;44.67;;;25.80;;
27746;SDS011;15138;51.012;4.692;2023-02-12T09:14:14;40.05;;;21.95;;
27746;SDS011;15138;51.012;4.692;2023-02-12T09:16:44;34.97;;;19.60;;
27746;SDS011;15138;51.012;4.692;2023-02-12T09:19:12;26.52;;;16.35;;
27746;SDS011;15138;51.012;4.692;2023-02-12T09:21:41;37.35;;;21.65;;
27746;SDS011;15138;51.012;4.692;2023-02-12T09:24:11;45.78;;;24.73;;
27746;SDS011;15138;51.012;4.692;2023-02-12T09:26:39;45.63;;;25.30;;
27746;SDS011;15138;51.012;4.692;2023-02-12T09:29:09;39.53;;;21.58;;
27746;SDS011;15138;51.012;4.692;2023-02-12T09:31:37;44.05;;;24.23;;
27746;SDS011;15138;51.012;4.692;2023-02-12T09:34:06;48.28;;;25.40;;
27746;SDS011;15138;51.012;4.692;2023-02-12T09:36:34;50.83;;;27.90;;
27746;SDS011;15138;51.012;4.692;2023-02-12T09:39:03;55.83;;;29.65;;
27746;SDS011;15138;51.012;4.692;2023-02-12T09:41:39;49.15;;;28.90;;
27746;SDS011;15138;51.012;4.692;2023-02-12T09:44:34;47.05;;;27.67;;
27746;SDS011;15138;51.012;4.692;2023-02-12T09:47:09;46.03;;;27.40;;
27746;SDS011;15138;51.012;4.692;2023-02-12T09:49:47;50.55;;;27.42;;
27746;SDS011;15138;51.012;4.692;2023-02-12T09:52:24;35.60;;;21.67;;
27746;SDS011;15138;51.012;4.692;2023-02-12T09:54:54;46.92;;;25.33;;
27746;SDS011;15138;51.012;4.692;2023-02-12T09:57:24;47.72;;;26.52;;
27746;SDS011;15138;51.012;4.692;2023-02-12T09:59:59;51.92;;;27.92;;
27746;SDS011;15138;51.012;4.692;2023-02-12T10:02:31;89.57;;;40.47;;
27746;SDS011;15138;51.012;4.692;2023-02-12T10:05:02;48.58;;;27.30;;
27746;SDS011;15138;51.012;4.692;2023-02-12T10:07:34;46.78;;;27.00;;
27746;SDS011;15138;51.012;4.692;2023-02-12T10:10:24;48.53;;;26.77;;
27746;SDS011;15138;51.012;4.692;2023-02-12T10:13:03;50.92;;;26.38;;
27746;SDS011;15138;51.012;4.692;2023-02-12T10:15:36;48.05;;;26.55;;
27746;SDS011;15138;51.012;4.692;2023-02-12T10:18:19;45.88;;;26.25;;
27746;SDS011;15138;51.012;4.692;2023-02-12T10:21:10;48.53;;;27.33;;
27746;SDS011;15138;51.012;4.692;2023-02-12T10:23:53;44.70;;;25.80;;
27746;SDS011;15138;51.012;4.692;2023-02-12T10:26:39;43.28;;;24.30;;
27746;SDS011;15138;51.012;4.692;2023-02-12T10:29:10;43.30;;;24.13;;
27746;SDS011;15138;51.012;4.692;2023-02-12T10:31:44;33.20;;;19.85;;
27746;SDS011;15138;51.012;4.692;2023-02-12T10:34:18;30.23;;;18.80;;
27746;SDS011;15138;51.012;4.692;2023-02-12T10:36:49;36.35;;;18.95;;
27746;SDS011;15138;51.012;4.692;2023-02-12T10:39:22;44.33;;;22.73;;
27746;SDS011;15138;51.012;4.692;2023-02-12T10:41:54;30.20;;;17.83;;
27746;SDS011;15138;51.012;4.692;2023-02-12T10:44:25;53.70;;;26.90;;
27746;SDS011;15138;51.012;4.692;2023-02-12T10:46:55;42.35;;;21.25;;
27746;SDS011;15138;51.012;4.692;2023-02-12T10:49:24;36.72;;;21.23;;
27746;SDS011;15138;51.012;4.692;2023-02-12T10:51:55;30.27;;;17.65;;
27746;SDS011;15138;51.012;4.692;2023-02-12T10:54:30;42.13;;;22.35;;
27746;SDS011;15138;51.012;4.692;2023-02-12T10:57:05;23.55;;;14.30;;
27746;SDS011;15138;51.012;4.692;2023-02-12T10:59:37;33.55;;;18.52;;
27746;SDS011;15138;51.012;4.692;2023-02-12T11:02:21;32.75;;;19.05;;
27746;SDS011;15138;51.012;4.692;2023-02-12T11:04:52;34.90;;;20.77;;
27746;SDS011;15138;51.012;4.692;2023-02-12T11:07:21;33.08;;;20.83;;
27746;SDS011;15138;51.012;4.692;2023-02-12T11:09:51;35.33;;;19.83;;
27746;SDS011;15138;51.012;4.692;2023-02-12T11:12:28;36.75;;;21.45;;
27746;SDS011;15138;51.012;4.692;2023-02-12T11:15:00;23.77;;;14.23;;
27746;SDS011;15138;51.012;4.692;2023-02-12T11:17:35;38.83;;;22.25;;
27746;SDS011;15138;51.012;4.692;2023-02-12T11:20:06;38.22;;;21.33;;
27746;SDS011;15138;51.012;4.692;2023-02-12T11:22:51;31.02;;;18.95;;
27746;SDS011;15138;51.012;4.692;2023-02-12T11:25:21;30.48;;;16.30;;
27746;SDS011;15138;51.012;4.692;2023-02-12T11:28:00;35.95;;;19.80;;
27746;SDS011;15138;51.012;4.692;2023-02-12T11:30:47;38.42;;;22.42;;
27746;SDS011;15138;51.012;4.692;2023-02-12T11:33:23;34.05;;;20.15;;
27746;SDS011;15138;51.012;4.692;2023-02-12T11:35:54;29.75;;;17.77;;
27746;SDS011;15138;51.012;4.692;2023-02-12T11:38:32;34.08;;;19.67;;
27746;SDS011;15138;51.012;4.692;2023-02-12T11:41:05;25.67;;;16.30;;
27746;SDS011;15138;51.012;4.692;2023-02-12T11:43:44;26.63;;;16.15;;
27746;SDS011;15138;51.012;4.692;2023-02-12T11:46:16;28.63;;;16.63;;
27746;SDS011;15138;51.012;4.692;2023-02-12T11:48:49;26.52;;;14.95;;
27746;SDS011;15138;51.012;4.692;2023-02-12T11:51:20;32.67;;;19.50;;
27746;SDS011;15138;51.012;4.692;2023-02-12T11:53:52;22.08;;;13.35;;
27746;SDS011;15138;51.012;4.692;2023-02-12T11:56:22;39.60;;;21.42;;
27746;SDS011;15138;51.012;4.692;2023-02-12T11:58:51;32.42;;;19.90;;
27746;SDS011;15138;51.012;4.692;2023-02-12T12:01:23;35.38;;;21.23;;
27746;SDS011;15138;51.012;4.692;2023-02-12T12:03:59;34.78;;;19.45;;
27746;SDS011;15138;51.012;4.692;2023-02-12T12:06:33;34.45;;;19.60;;
27746;SDS011;15138;51.012;4.692;2023-02-12T12:09:06;33.67;;;20.65;;
27746;SDS011;15138;51.012;4.692;2023-02-12T12:11:45;27.67;;;17.05;;
27746;SDS011;15138;51.012;4.692;2023-02-12T12:14:21;33.03;;;19.38;;
27746;SDS011;15138;51.012;4.692;2023-02-12T12:16:53;35.40;;;20.98;;
27746;SDS011;15138;51.012;4.692;2023-02-12T12:19:48;32.05;;;18.27;;
27746;SDS011;15138;51.012;4.692;2023-02-12T12:22:30;37.13;;;21.23;;
27746;SDS011;15138;51.012;4.692;2023-02-12T12:25:09;25.23;;;14.43;;
27746;SDS011;15138;51.012;4.692;2023-02-12T12:27:49;36.10;;;20.20;;
27746;SDS011;15138;51.012;4.692;2023-02-12T12:30:42;33.92;;;18.10;;
27746;SDS011;15138;51.012;4.692;2023-02-12T12:33:33;39.15;;;22.17;;
27746;SDS011;15138;51.012;4.692;2023-02-12T12:39:16;27.98;;;17.60;;
27746;SDS011;15138;51.012;4.692;2023-02-12T12:42:01;28.48;;;16.80;;
27746;SDS011;15138;51.012;4.692;2023-02-12T12:44:55;23.75;;;14.52;;
27746;SDS011;15138;51.012;4.692;2023-02-12T12:47:39;29.58;;;16.33;;
27746;SDS011;15138;51.012;4.692;2023-02-12T12:50:22;25.75;;;15.32;;
27746;SDS011;15138;51.012;4.692;2023-02-12T12:53:08;31.00;;;16.98;;
27746;SDS011;15138;51.012;4.692;2023-02-12T12:55:58;26.45;;;15.55;;
27746;SDS011;15138;51.012;4.692;2023-02-12T12:58:48;29.90;;;16.65;;
27746;SDS011;15138;51.012;4.692;2023-02-12T13:01:34;32.30;;;20.00;;
27746;SDS011;15138;51.012;4.692;2023-02-12T13:04:30;25.05;;;15.13;;
27746;SDS011;15138;51.012;4.692;2023-02-12T13:07:10;40.58;;;22.70;;
27746;SDS011;15138;51.012;4.692;2023-02-12T13:10:05;36.47;;;21.83;;
27746;SDS011;15138;51.012;4.692;2023-02-12T13:12:46;31.20;;;18.35;;
27746;SDS011;15138;51.012;4.692;2023-02-12T13:15:29;31.40;;;19.67;;
27746;SDS011;15138;51.012;4.692;2023-02-12T13:18:08;30.55;;;18.35;;
27746;SDS011;15138;51.012;4.692;2023-02-12T13:20:46;28.85;;;17.15;;
27746;SDS011;15138;51.012;4.692;2023-02-12T13:23:23;32.88;;;20.40;;
27746;SDS011;15138;51.012;4.692;2023-02-12T13:26:02;22.45;;;14.05;;
27746;SDS011;15138;51.012;4.692;2023-02-12T13:28:37;31.35;;;19.05;;
27746;SDS011;15138;51.012;4.692;2023-02-12T13:31:09;27.05;;;16.67;;
27746;SDS011;15138;51.012;4.692;2023-02-12T13:33:59;22.85;;;14.18;;
27746;SDS011;15138;51.012;4.692;2023-02-12T13:36:30;30.88;;;16.98;;
27746;SDS011;15138;51.012;4.692;2023-02-12T13:39:03;28.83;;;17.83;;
27746;SDS011;15138;51.012;4.692;2023-02-12T13:41:43;37.40;;;21.15;;
27746;SDS011;15138;51.012;4.692;2023-02-12T13:44:25;31.17;;;18.73;;
27746;SDS011;15138;51.012;4.692;2023-02-12T13:47:01;38.50;;;22.33;;
27746;SDS011;15138;51.012;4.692;2023-02-12T13:49:39;21.48;;;12.90;;
27746;SDS011;15138;51.012;4.692;2023-02-12T13:52:16;28.85;;;18.23;;
27746;SDS011;15138;51.012;4.692;2023-02-12T13:54:52;19.35;;;11.55;;
27746;SDS011;15138;51.012;4.692;2023-02-12T13:57:28;34.08;;;20.58;;
27746;SDS011;15138;51.012;4.692;2023-02-12T13:59:57;30.15;;;17.05;;
27746;SDS011;15138;51.012;4.692;2023-02-12T14:05:18;30.58;;;16.73;;
27746;SDS011;15138;51.012;4.692;2023-02-12T14:07:55;23.05;;;14.07;;
27746;SDS011;15138;51.012;4.692;2023-02-12T14:10:25;30.48;;;17.38;;
27746;SDS011;15138;51.012;4.692;2023-02-12T14:13:09;35.13;;;21.00;;
27746;SDS011;15138;51.012;4.692;2023-02-12T14:15:42;40.00;;;23.52;;
27746;SDS011;15138;51.012;4.692;2023-02-12T14:18:28;37.97;;;23.50;;
27746;SDS011;15138;51.012;4.692;2023-02-12T14:27:28;39.00;;;22.88;;
27746;SDS011;15138;51.012;4.692;2023-02-12T14:33:18;36.33;;;21.00;;
27746;SDS011;15138;51.012;4.692;2023-02-12T14:35:49;36.35;;;20.30;;
27746;SDS011;15138;51.012;4.692;2023-02-12T14:41:31;27.45;;;15.75;;
27746;SDS011;15138;51.012;4.692;2023-02-12T14:50:18;33.08;;;18.60;;
27746;SDS011;15138;51.012;4.692;2023-02-12T14:52:52;34.60;;;21.00;;
27746;SDS011;15138;51.012;4.692;2023-02-12T14:55:26;35.50;;;20.17;;
27746;SDS011;15138;51.012;4.692;2023-02-12T14:57:57;20.77;;;13.35;;
27746;SDS011;15138;51.012;4.692;2023-02-12T15:00:28;23.38;;;14.07;;
27746;SDS011;15138;51.012;4.692;2023-02-12T15:03:12;43.05;;;23.45;;
27746;SDS011;15138;51.012;4.692;2023-02-12T15:05:49;31.35;;;18.45;;
27746;SDS011;15138;51.012;4.692;2023-02-12T15:08:30;38.55;;;22.20;;
27746;SDS011;15138;51.012;4.692;2023-02-12T15:11:05;29.30;;;18.63;;
27746;SDS011;15138;51.012;4.692;2023-02-12T15:13:47;39.20;;;22.08;;
27746;SDS011;15138;51.012;4.692;2023-02-12T15:16:26;28.35;;;17.00;;
27746;SDS011;15138;51.012;4.692;2023-02-12T15:19:01;29.38;;;17.75;;
27746;SDS011;15138;51.012;4.692;2023-02-12T15:21:34;47.55;;;25.38;;
27746;SDS011;15138;51.012;4.692;2023-02-12T15:24:05;33.15;;;17.63;;
27746;SDS011;15138;51.012;4.692;2023-02-12T15:26:36;25.25;;;14.70;;